createdAt,value
2019-03-29T00:00:28.081Z,24.50
2019-03-29T00:01:28.068Z,24.80
2019-03-29T00:02:28.098Z,26.50
2019-03-29T00:03:28.057Z,26.30
2019-03-29T00:04:28.048Z,24.90
2019-03-29T00:05:28.039Z,24.60
2019-03-29T00:06:28.037Z,25.50
2019-03-29T00:07:38.816Z,27.40
2019-03-29T00:08:29.004Z,26.50
2019-03-29T00:09:28.560Z,26.20
2019-03-29T00:10:27.973Z,24.70
2019-03-29T00:11:27.966Z,29.00
2019-03-29T00:12:27.985Z,26.00
2019-03-29T00:13:27.951Z,26.50
2019-03-29T00:14:27.944Z,24.60
2019-03-29T00:15:27.933Z,26.70
2019-03-29T00:16:27.916Z,27.40
2019-03-29T00:17:27.925Z,26.50
2019-03-29T00:18:27.899Z,26.10
2019-03-29T00:19:28.104Z,27.80
2019-03-29T00:20:27.871Z,25.30
2019-03-29T00:21:27.863Z,25.90
2019-03-29T00:22:27.886Z,26.90
2019-03-29T00:23:27.836Z,28.80
2019-03-29T00:24:27.827Z,27.30
2019-03-29T00:25:27.816Z,27.90
2019-03-29T00:26:27.811Z,27.10
2019-03-29T00:27:27.835Z,28.10
2019-03-29T00:28:27.782Z,25.00
2019-03-29T00:29:27.778Z,26.40
2019-03-29T00:30:27.765Z,26.90
2019-03-29T00:31:27.771Z,26.20
2019-03-29T00:32:27.778Z,26.20
2019-03-29T00:33:27.732Z,26.90
2019-03-29T00:34:27.721Z,25.90
2019-03-29T00:35:27.798Z,27.70
2019-03-29T00:36:27.709Z,28.30
2019-03-29T00:37:27.723Z,26.90
2019-03-29T00:38:27.686Z,26.30
2019-03-29T00:39:27.666Z,28.00
2019-03-29T00:40:27.666Z,28.90
2019-03-29T00:41:27.647Z,30.90
2019-03-29T00:42:27.667Z,29.50
2019-03-29T00:43:27.639Z,28.80
2019-03-29T00:44:27.628Z,29.10
2019-03-29T00:45:27.605Z,30.30
2019-03-29T00:46:27.597Z,30.30
2019-03-29T00:47:27.627Z,32.40
2019-03-29T00:48:27.576Z,28.80
2019-03-29T00:49:27.615Z,28.30
2019-03-29T00:50:27.562Z,29.50
2019-03-29T00:51:27.542Z,31.90
2019-03-29T00:52:27.553Z,31.50
2019-03-29T00:53:27.522Z,32.60
2019-03-29T00:54:28.143Z,30.90
2019-03-29T00:55:27.528Z,28.10
2019-03-29T00:56:27.503Z,30.10
2019-03-29T00:57:27.511Z,30.60
2019-03-29T00:58:27.489Z,31.80
2019-03-29T00:59:27.460Z,29.90
2019-03-29T01:00:27.448Z,30.80
2019-03-29T01:01:27.435Z,33.00
2019-03-29T01:02:27.453Z,31.20
2019-03-29T01:03:27.429Z,30.60
2019-03-29T01:04:27.401Z,31.70
2019-03-29T01:05:27.393Z,32.20
2019-03-29T01:06:27.396Z,31.30
2019-03-29T01:07:27.402Z,31.10
2019-03-29T01:08:27.363Z,31.50
2019-03-29T01:09:27.352Z,33.50
2019-03-29T01:10:27.341Z,35.10
2019-03-29T01:11:27.324Z,32.90
2019-03-29T01:12:27.370Z,35.00
2019-03-29T01:13:27.306Z,32.40
2019-03-29T01:14:27.296Z,32.40
2019-03-29T01:15:27.292Z,35.20
2019-03-29T01:16:27.839Z,34.00
2019-03-29T01:17:27.263Z,34.40
2019-03-29T01:18:27.285Z,33.30
2019-03-29T01:19:27.259Z,32.90
2019-03-29T01:20:27.252Z,31.50
2019-03-29T01:21:27.220Z,32.20
2019-03-29T01:22:27.203Z,32.00
2019-03-29T01:23:27.226Z,31.60
2019-03-29T01:24:27.202Z,33.40
2019-03-29T01:25:27.179Z,31.80
2019-03-29T01:26:27.419Z,31.50
2019-03-29T01:27:27.172Z,31.20
2019-03-29T01:28:27.187Z,33.10
2019-03-29T01:29:27.139Z,32.20
2019-03-29T01:30:27.136Z,33.90
2019-03-29T01:31:27.121Z,34.30
2019-03-29T01:32:27.120Z,35.20
2019-03-29T01:33:27.116Z,34.70
2019-03-29T01:34:27.078Z,33.60
2019-03-29T01:35:27.084Z,35.90
2019-03-29T01:36:27.893Z,36.90
2019-03-29T01:37:27.055Z,33.00
2019-03-29T01:38:27.066Z,34.30
2019-03-29T01:39:27.028Z,32.30
2019-03-29T01:40:27.025Z,34.60
2019-03-29T01:41:27.342Z,34.90
2019-03-29T01:42:27.007Z,34.40
2019-03-29T01:43:27.030Z,33.70
2019-03-29T01:44:27.873Z,36.60
2019-03-29T01:45:26.957Z,35.20
2019-03-29T01:46:26.962Z,38.30
2019-03-29T01:47:26.956Z,35.70
2019-03-29T01:48:26.966Z,37.20
2019-03-29T01:49:26.925Z,36.30
2019-03-29T01:50:26.923Z,39.00
2019-03-29T01:51:27.234Z,36.90
2019-03-29T01:52:26.899Z,36.70
2019-03-29T01:53:26.906Z,35.50
2019-03-29T01:54:26.880Z,38.30
2019-03-29T01:55:26.867Z,35.60
2019-03-29T01:56:26.877Z,37.60
2019-03-29T01:57:26.841Z,39.90
2019-03-29T01:58:26.852Z,36.60
2019-03-29T01:59:26.820Z,43.70
2019-03-29T02:00:26.812Z,40.40
2019-03-29T02:01:26.808Z,40.10
2019-03-29T02:02:26.776Z,37.20
2019-03-29T02:03:26.799Z,39.90
2019-03-29T02:04:26.769Z,41.20
2019-03-29T02:05:27.701Z,39.00
2019-03-29T02:06:26.757Z,43.80
2019-03-29T02:07:26.731Z,43.20
2019-03-29T02:08:35.685Z,40.00
2019-03-29T02:09:27.714Z,41.10
2019-03-29T02:10:26.718Z,38.50
2019-03-29T02:11:26.697Z,38.70
2019-03-29T02:12:26.684Z,39.80
2019-03-29T02:13:26.708Z,41.50
2019-03-29T02:14:26.654Z,40.30
2019-03-29T02:15:26.653Z,40.10
2019-03-29T02:16:26.638Z,39.60
2019-03-29T02:17:26.642Z,39.70
2019-03-29T02:18:26.623Z,41.80
2019-03-29T02:19:26.637Z,41.90
2019-03-29T02:20:26.598Z,41.00
2019-03-29T02:21:26.593Z,40.20
2019-03-29T02:22:26.585Z,41.40
2019-03-29T02:23:26.564Z,40.20
2019-03-29T02:24:26.577Z,41.60
2019-03-29T02:25:26.554Z,38.00
2019-03-29T02:26:26.523Z,39.20
2019-03-29T02:27:27.194Z,42.40
2019-03-29T02:28:26.511Z,39.30
2019-03-29T02:29:26.534Z,42.00
2019-03-29T02:30:26.510Z,44.30
2019-03-29T02:31:28.819Z,39.00
2019-03-29T02:32:26.467Z,40.90
2019-03-29T02:33:26.468Z,45.20
2019-03-29T02:34:26.473Z,44.80
2019-03-29T02:35:26.437Z,41.40
2019-03-29T02:36:26.429Z,43.50
2019-03-29T02:37:26.413Z,44.00
2019-03-29T02:38:26.434Z,46.70
2019-03-29T02:39:27.051Z,43.80
2019-03-29T02:40:26.397Z,44.20
2019-03-29T02:41:26.375Z,44.70
2019-03-29T02:42:26.373Z,42.50
2019-03-29T02:43:26.352Z,42.20
2019-03-29T02:44:26.377Z,41.30
2019-03-29T02:45:26.343Z,45.30
2019-03-29T02:46:26.329Z,42.80
2019-03-29T02:47:26.307Z,45.90
2019-03-29T02:48:26.308Z,42.00
2019-03-29T02:49:26.325Z,42.60
2019-03-29T02:50:26.289Z,43.80
2019-03-29T02:51:26.323Z,42.10
2019-03-29T02:52:26.279Z,47.60
2019-03-29T02:53:26.253Z,43.00
2019-03-29T02:54:26.271Z,43.60
2019-03-29T02:55:26.228Z,44.90
2019-03-29T02:56:26.218Z,45.10
2019-03-29T02:57:26.210Z,45.20
2019-03-29T02:58:26.194Z,39.80
2019-03-29T02:59:26.224Z,43.40
2019-03-29T03:00:26.177Z,46.60
2019-03-29T03:01:26.181Z,43.40
2019-03-29T03:02:26.717Z,46.70
2019-03-29T03:03:26.147Z,45.90
2019-03-29T03:04:26.185Z,42.30
2019-03-29T03:05:26.127Z,44.00
2019-03-29T03:06:26.107Z,45.00
2019-03-29T03:07:26.105Z,44.50
2019-03-29T03:08:26.104Z,45.90
2019-03-29T03:09:26.124Z,47.70
2019-03-29T03:10:26.073Z,50.90
2019-03-29T03:11:26.062Z,49.10
2019-03-29T03:12:26.052Z,48.60
2019-03-29T03:13:26.045Z,43.30
2019-03-29T03:14:26.071Z,48.20
2019-03-29T03:15:26.014Z,46.00
2019-03-29T03:16:26.008Z,51.80
2019-03-29T03:17:25.993Z,48.80
2019-03-29T03:18:25.996Z,49.30
2019-03-29T03:19:26.001Z,46.40
2019-03-29T03:20:25.976Z,52.10
2019-03-29T03:21:25.959Z,49.00
2019-03-29T03:22:25.951Z,53.90
2019-03-29T03:23:25.931Z,50.40
2019-03-29T03:24:25.962Z,47.50
2019-03-29T03:25:25.919Z,51.10
2019-03-29T03:26:36.889Z,48.30
2019-03-29T03:27:25.874Z,50.60
2019-03-29T03:28:25.871Z,48.20
2019-03-29T03:29:25.894Z,52.90
2019-03-29T03:30:25.850Z,49.70
2019-03-29T03:31:25.841Z,50.10
2019-03-29T03:32:25.840Z,52.00
2019-03-29T03:33:25.830Z,52.10
2019-03-29T03:34:25.848Z,53.00
2019-03-29T03:35:25.816Z,53.00
2019-03-29T03:36:25.795Z,51.50
2019-03-29T03:37:25.790Z,48.50
2019-03-29T03:38:25.778Z,53.00
2019-03-29T03:39:31.994Z,52.70
2019-03-29T03:40:26.769Z,52.30
2019-03-29T03:41:25.753Z,52.40
2019-03-29T03:42:25.747Z,53.20
2019-03-29T03:43:25.736Z,53.20
2019-03-29T03:44:25.740Z,51.40
2019-03-29T03:45:25.706Z,54.30
2019-03-29T03:46:25.688Z,52.00
2019-03-29T03:47:25.686Z,54.70
2019-03-29T03:48:25.662Z,54.30
2019-03-29T03:49:25.734Z,56.10
2019-03-29T03:50:25.645Z,53.50
2019-03-29T03:51:25.648Z,55.80
2019-03-29T03:52:25.640Z,57.70
2019-03-29T03:53:25.617Z,54.20
2019-03-29T03:54:25.615Z,53.80
2019-03-29T03:55:25.645Z,53.20
2019-03-29T03:56:25.582Z,53.10
2019-03-29T03:57:25.575Z,55.00
2019-03-29T03:58:25.566Z,56.60
2019-03-29T03:59:25.562Z,53.70
2019-03-29T04:00:25.593Z,52.60
2019-03-29T04:01:25.536Z,55.70
2019-03-29T04:02:25.521Z,56.20
2019-03-29T04:03:25.516Z,54.20
2019-03-29T04:04:25.505Z,53.40
2019-03-29T04:05:25.519Z,53.00
2019-03-29T04:06:25.486Z,54.40
2019-03-29T04:07:25.476Z,52.70
2019-03-29T04:08:25.455Z,54.80
2019-03-29T04:09:25.483Z,57.70
2019-03-29T04:10:25.576Z,54.20
2019-03-29T04:11:25.426Z,53.80
2019-03-29T04:12:25.415Z,54.50
2019-03-29T04:13:25.420Z,54.10
2019-03-29T04:14:25.405Z,53.90
2019-03-29T04:15:25.423Z,54.20
2019-03-29T04:16:25.363Z,57.00
2019-03-29T04:17:25.414Z,54.40
2019-03-29T04:18:25.353Z,54.50
2019-03-29T04:19:25.346Z,55.40
2019-03-29T04:20:25.367Z,55.70
2019-03-29T04:21:25.329Z,54.30
2019-03-29T04:22:25.314Z,54.50
2019-03-29T04:23:25.319Z,56.90
2019-03-29T04:24:25.293Z,55.70
2019-03-29T04:25:25.305Z,54.00
2019-03-29T04:26:25.272Z,58.90
2019-03-29T04:27:25.254Z,57.20
2019-03-29T04:28:25.255Z,58.20
2019-03-29T04:29:25.239Z,59.70
2019-03-29T04:30:25.263Z,59.10
2019-03-29T04:31:25.212Z,57.80
2019-03-29T04:32:25.219Z,56.00
2019-03-29T04:33:25.199Z,61.20
2019-03-29T04:34:25.178Z,56.70
2019-03-29T04:35:25.212Z,60.50
2019-03-29T04:36:25.181Z,61.40
2019-03-29T04:37:25.165Z,56.90
2019-03-29T04:38:25.269Z,57.20
2019-03-29T04:39:25.135Z,55.80
2019-03-29T04:40:25.156Z,58.80
2019-03-29T04:41:25.108Z,58.00
2019-03-29T04:42:25.106Z,58.70
2019-03-29T04:43:25.087Z,56.60
2019-03-29T04:44:25.087Z,59.10
2019-03-29T04:45:25.093Z,57.30
2019-03-29T04:46:25.062Z,60.60
2019-03-29T04:47:25.043Z,61.60
2019-03-29T04:48:25.041Z,60.50
2019-03-29T04:49:25.022Z,61.20
2019-03-29T04:50:25.045Z,63.30
2019-03-29T04:51:24.994Z,63.40
2019-03-29T04:52:25.003Z,58.60
2019-03-29T04:53:24.997Z,63.30
2019-03-29T04:54:24.969Z,58.70
2019-03-29T04:55:24.993Z,61.90
2019-03-29T04:56:24.953Z,61.20
2019-03-29T04:57:25.027Z,61.00
2019-03-29T04:58:24.947Z,63.90
2019-03-29T04:59:24.936Z,59.60
2019-03-29T05:00:24.943Z,61.40
2019-03-29T05:01:24.902Z,62.30
2019-03-29T05:02:24.889Z,62.90
2019-03-29T05:03:24.897Z,59.50
2019-03-29T05:04:24.867Z,59.20
2019-03-29T05:05:24.902Z,62.10
2019-03-29T05:06:24.843Z,63.70
2019-03-29T05:07:24.857Z,58.80
2019-03-29T05:08:24.829Z,62.20
2019-03-29T05:09:24.810Z,63.10
2019-03-29T05:10:24.837Z,62.90
2019-03-29T05:11:24.788Z,60.10
2019-03-29T05:12:24.783Z,57.80
2019-03-29T05:13:24.771Z,56.60
2019-03-29T05:14:24.762Z,59.40
2019-03-29T05:15:24.785Z,54.10
2019-03-29T05:16:24.739Z,58.90
2019-03-29T05:17:24.730Z,59.60
2019-03-29T05:18:24.724Z,57.70
2019-03-29T05:19:24.706Z,56.40
2019-03-29T05:20:24.725Z,60.80
2019-03-29T05:21:24.691Z,52.40
2019-03-29T05:22:24.677Z,55.90
2019-03-29T05:23:24.662Z,54.90
2019-03-29T05:24:24.654Z,54.10
2019-03-29T05:25:24.685Z,55.00
2019-03-29T05:26:25.619Z,54.90
2019-03-29T05:27:24.640Z,52.20
2019-03-29T05:28:24.646Z,53.60
2019-03-29T05:29:24.601Z,53.80
2019-03-29T05:30:24.627Z,52.70
2019-03-29T05:31:24.581Z,52.30
2019-03-29T05:32:24.573Z,55.90
2019-03-29T05:33:24.571Z,54.90
2019-03-29T05:34:24.565Z,55.10
2019-03-29T05:35:24.574Z,52.70
2019-03-29T05:36:24.540Z,54.40
2019-03-29T05:37:24.519Z,53.30
2019-03-29T05:38:24.514Z,51.00
2019-03-29T05:39:24.512Z,52.70
2019-03-29T05:40:34.944Z,52.90
2019-03-29T05:41:25.482Z,53.60
2019-03-29T05:42:24.497Z,50.60
2019-03-29T05:43:24.458Z,51.10
2019-03-29T05:44:24.461Z,50.00
2019-03-29T05:45:24.474Z,48.20
2019-03-29T05:46:24.429Z,48.30
2019-03-29T05:47:24.414Z,48.90
2019-03-29T05:48:24.407Z,50.20
2019-03-29T05:49:24.399Z,47.60
2019-03-29T05:50:24.409Z,47.40
2019-03-29T05:51:24.397Z,50.00
2019-03-29T05:52:24.365Z,47.40
2019-03-29T05:53:24.349Z,45.00
2019-03-29T05:54:24.341Z,45.30
2019-03-29T05:55:32.381Z,44.70
2019-03-29T05:56:25.320Z,42.70
2019-03-29T05:57:24.314Z,41.90
2019-03-29T05:58:24.287Z,43.00
2019-03-29T05:59:24.277Z,42.60
2019-03-29T06:00:24.299Z,45.00
2019-03-29T06:01:24.355Z,41.90
2019-03-29T06:02:24.326Z,41.00
2019-03-29T06:03:24.298Z,41.80
2019-03-29T06:04:24.250Z,41.20
2019-03-29T06:05:24.279Z,37.60
2019-03-29T06:06:24.219Z,42.10
2019-03-29T06:07:24.207Z,41.50
2019-03-29T06:08:24.198Z,40.40
2019-03-29T06:09:24.173Z,41.00
2019-03-29T06:10:24.247Z,40.10
2019-03-29T06:11:24.186Z,41.40
2019-03-29T06:12:24.153Z,38.70
2019-03-29T06:13:24.385Z,40.60
2019-03-29T06:14:24.131Z,39.70
2019-03-29T06:15:24.126Z,41.00
2019-03-29T06:16:38.057Z,39.20
2019-03-29T06:17:25.101Z,37.70
2019-03-29T06:18:24.089Z,36.10
2019-03-29T06:19:24.077Z,36.00
2019-03-29T06:20:24.127Z,38.90
2019-03-29T06:21:24.085Z,35.20
2019-03-29T06:22:24.034Z,37.70
2019-03-29T06:23:24.034Z,35.30
2019-03-29T06:24:24.012Z,34.70
2019-03-29T06:25:24.078Z,34.00
2019-03-29T06:26:24.025Z,35.60
2019-03-29T06:27:23.991Z,32.60
2019-03-29T06:28:23.990Z,31.60
2019-03-29T06:29:23.966Z,33.10
2019-03-29T06:30:23.969Z,32.60
2019-03-29T06:31:23.967Z,32.00
2019-03-29T06:32:23.977Z,31.20
2019-03-29T06:33:23.917Z,31.50
2019-03-29T06:34:23.933Z,37.20
2019-03-29T06:35:23.911Z,34.70
2019-03-29T06:36:23.940Z,32.40
2019-03-29T06:37:23.889Z,33.20
2019-03-29T06:38:23.875Z,32.40
2019-03-29T06:39:23.862Z,31.30
2019-03-29T06:40:23.868Z,30.50
2019-03-29T06:41:23.862Z,32.30
2019-03-29T06:42:23.826Z,31.40
2019-03-29T06:43:23.841Z,33.50
2019-03-29T06:44:23.814Z,35.70
2019-03-29T06:45:23.822Z,32.50
2019-03-29T06:46:23.818Z,32.70
2019-03-29T06:47:23.775Z,33.10
2019-03-29T06:48:23.775Z,31.80
2019-03-29T06:49:23.764Z,32.30
2019-03-29T06:50:23.744Z,31.00
2019-03-29T06:51:23.759Z,31.60
2019-03-29T06:52:23.736Z,28.80
2019-03-29T06:53:23.746Z,30.50
2019-03-29T06:54:23.715Z,29.50
2019-03-29T06:55:23.714Z,29.60
2019-03-29T06:56:23.733Z,28.90
2019-03-29T06:57:23.674Z,29.40
2019-03-29T06:58:23.664Z,30.00
2019-03-29T06:59:23.641Z,31.20
2019-03-29T07:00:23.631Z,30.80
2019-03-29T07:01:23.647Z,30.10
2019-03-29T07:02:23.617Z,29.50
2019-03-29T07:03:23.605Z,27.90
2019-03-29T07:04:23.588Z,29.40
2019-03-29T07:05:23.590Z,29.40
2019-03-29T07:06:23.604Z,29.90
2019-03-29T07:07:23.567Z,31.50
2019-03-29T07:08:23.600Z,31.10
2019-03-29T07:09:23.550Z,27.30
2019-03-29T07:10:23.541Z,28.70
2019-03-29T07:11:23.550Z,28.40
2019-03-29T07:12:23.512Z,26.80
2019-03-29T07:13:23.527Z,26.80
2019-03-29T07:14:23.488Z,27.70
2019-03-29T07:15:23.496Z,26.20
2019-03-29T07:16:23.533Z,25.70
2019-03-29T07:17:23.476Z,27.40
2019-03-29T07:18:23.448Z,27.20
2019-03-29T07:19:23.437Z,22.40
2019-03-29T07:20:23.441Z,24.50
2019-03-29T07:21:23.470Z,23.90
2019-03-29T07:22:23.412Z,23.10
2019-03-29T07:23:23.430Z,23.80
2019-03-29T07:24:23.398Z,24.40
2019-03-29T07:25:23.378Z,24.40
2019-03-29T07:26:23.404Z,21.90
2019-03-29T07:27:23.357Z,22.60
2019-03-29T07:28:23.345Z,22.90
2019-03-29T07:29:23.340Z,23.40
2019-03-29T07:30:23.319Z,23.00
2019-03-29T07:31:23.345Z,22.90
2019-03-29T07:32:23.294Z,25.00
2019-03-29T07:33:23.286Z,22.00
2019-03-29T07:34:23.277Z,22.90
2019-03-29T07:35:23.328Z,22.30
2019-03-29T07:36:23.281Z,22.50
2019-03-29T07:37:23.239Z,22.10
2019-03-29T07:38:23.226Z,22.00
2019-03-29T07:39:23.219Z,22.10
2019-03-29T07:40:23.211Z,21.40
2019-03-29T07:41:31.802Z,21.50
2019-03-29T07:42:24.190Z,19.70
2019-03-29T07:43:24.122Z,20.80
2019-03-29T07:44:23.168Z,19.30
2019-03-29T07:45:23.154Z,18.90
2019-03-29T07:46:23.184Z,20.00
2019-03-29T07:47:23.138Z,18.60
2019-03-29T07:48:23.127Z,20.30
2019-03-29T07:49:23.118Z,18.60
2019-03-29T07:50:23.108Z,18.20
2019-03-29T07:51:23.129Z,17.80
2019-03-29T07:52:23.090Z,17.00
2019-03-29T07:53:23.087Z,19.00
2019-03-29T07:54:23.064Z,19.30
2019-03-29T07:55:23.051Z,15.70
2019-03-29T07:56:23.035Z,16.30
2019-03-29T07:57:23.050Z,20.80
2019-03-29T07:58:23.019Z,20.90
2019-03-29T07:59:23.339Z,17.40
2019-03-29T08:00:22.997Z,16.60
2019-03-29T08:01:22.981Z,15.50
2019-03-29T08:02:23.003Z,15.90
2019-03-29T08:03:23.559Z,15.40
2019-03-29T08:04:23.892Z,15.80
2019-03-29T08:05:22.947Z,14.10
2019-03-29T08:06:22.926Z,16.00
2019-03-29T08:07:27.584Z,15.40
2019-03-29T08:08:30.442Z,16.30
2019-03-29T08:09:23.895Z,16.40
2019-03-29T08:10:27.565Z,17.10
2019-03-29T08:11:26.228Z,15.50
2019-03-29T08:12:22.952Z,16.60
2019-03-29T08:13:22.852Z,16.20
2019-03-29T08:14:22.849Z,15.00
2019-03-29T08:15:22.842Z,14.60
2019-03-29T08:16:22.841Z,16.60
2019-03-29T08:17:22.845Z,16.10
2019-03-29T08:18:22.806Z,14.10
2019-03-29T08:19:22.796Z,14.40
2019-03-29T08:20:40.158Z,14.70
2019-03-29T08:21:23.834Z,13.80
2019-03-29T08:22:22.796Z,15.00
2019-03-29T08:23:22.754Z,14.10
2019-03-29T08:24:23.574Z,14.80
2019-03-29T08:25:22.730Z,13.70
2019-03-29T08:26:22.864Z,13.40
2019-03-29T08:27:22.751Z,15.60
2019-03-29T08:28:22.738Z,13.10
2019-03-29T08:29:22.690Z,14.20
2019-03-29T08:30:22.682Z,14.20
2019-03-29T08:31:22.674Z,13.90
2019-03-29T08:32:22.681Z,15.90
2019-03-29T08:33:22.642Z,13.40
2019-03-29T08:34:22.635Z,12.80
2019-03-29T08:35:22.628Z,14.00
2019-03-29T08:36:22.616Z,14.00
2019-03-29T08:37:22.638Z,13.20
2019-03-29T08:38:22.594Z,12.30
2019-03-29T08:39:28.271Z,14.40
2019-03-29T08:40:23.632Z,14.60
2019-03-29T08:41:22.588Z,14.00
2019-03-29T08:42:22.588Z,14.30
2019-03-29T08:43:22.539Z,13.70
2019-03-29T08:44:22.532Z,13.20
2019-03-29T08:45:22.530Z,12.90
2019-03-29T08:46:22.543Z,14.20
2019-03-29T08:47:22.630Z,13.60
2019-03-29T08:48:22.497Z,12.70
2019-03-29T08:49:22.493Z,13.00
2019-03-29T08:50:22.469Z,13.10
2019-03-29T08:51:22.464Z,12.50
2019-03-29T08:52:22.479Z,12.00
2019-03-29T08:53:22.451Z,13.90
2019-03-29T08:54:22.434Z,11.30
2019-03-29T08:55:22.449Z,11.40
2019-03-29T08:56:22.502Z,11.80
2019-03-29T08:57:22.519Z,11.50
2019-03-29T08:58:22.951Z,14.20
2019-03-29T08:59:22.875Z,12.80
2019-03-29T09:00:22.360Z,11.60
2019-03-29T09:01:22.415Z,12.00
2019-03-29T09:02:25.039Z,14.50
2019-03-29T09:03:22.391Z,11.90
2019-03-29T09:04:22.460Z,12.40
2019-03-29T09:05:22.348Z,11.50
2019-03-29T09:06:22.889Z,12.10
2019-03-29T09:07:22.892Z,10.20
2019-03-29T09:08:22.287Z,11.10
2019-03-29T09:09:22.260Z,12.00
2019-03-29T09:10:22.263Z,11.10
2019-03-29T09:11:22.255Z,12.10
2019-03-29T09:12:22.267Z,10.80
2019-03-29T09:13:22.246Z,11.50
2019-03-29T09:14:22.211Z,14.20
2019-03-29T09:15:22.204Z,11.20
2019-03-29T09:16:22.197Z,10.30
2019-03-29T09:17:22.220Z,12.70
2019-03-29T09:18:25.648Z,10.90
2019-03-29T09:19:22.175Z,11.60
2019-03-29T09:20:22.158Z,11.30
2019-03-29T09:21:22.145Z,11.60
2019-03-29T09:22:22.156Z,12.60
2019-03-29T09:23:22.160Z,12.60
2019-03-29T09:24:22.602Z,11.60
2019-03-29T09:25:22.108Z,10.80
2019-03-29T09:26:22.098Z,12.10
2019-03-29T09:27:22.122Z,10.60
2019-03-29T09:28:22.068Z,12.40
2019-03-29T09:29:22.063Z,11.20
2019-03-29T09:30:22.057Z,11.70
2019-03-29T09:31:22.041Z,10.30
2019-03-29T09:32:22.050Z,11.20
2019-03-29T09:33:22.022Z,11.90
2019-03-29T09:34:22.011Z,11.00
2019-03-29T09:35:21.993Z,12.30
2019-03-29T09:36:21.981Z,14.40
2019-03-29T09:37:22.002Z,11.40
2019-03-29T09:38:21.965Z,11.10
2019-03-29T09:39:21.963Z,12.80
2019-03-29T09:40:21.991Z,13.20
2019-03-29T09:41:21.940Z,13.50
2019-03-29T09:42:28.852Z,10.80
2019-03-29T09:43:26.290Z,9.80
2019-03-29T09:44:21.914Z,10.80
2019-03-29T09:45:21.897Z,10.90
2019-03-29T09:46:21.882Z,10.90
2019-03-29T09:47:21.878Z,10.90
2019-03-29T09:48:21.890Z,12.10
2019-03-29T09:49:21.852Z,11.00
2019-03-29T09:50:23.039Z,10.10
2019-03-29T09:51:21.831Z,11.10
2019-03-29T09:52:21.820Z,10.30
2019-03-29T09:53:21.926Z,11.50
2019-03-29T09:54:21.808Z,10.70
2019-03-29T09:55:21.790Z,10.50
2019-03-29T09:56:21.780Z,11.90
2019-03-29T09:57:36.086Z,10.50
2019-03-29T09:58:22.786Z,11.30
2019-03-29T09:59:23.297Z,9.80
2019-03-29T10:00:23.451Z,10.30
2019-03-29T10:01:21.758Z,11.30
2019-03-29T10:02:21.713Z,9.60
2019-03-29T10:03:21.737Z,9.50
2019-03-29T10:04:21.710Z,10.70
2019-03-29T10:05:21.687Z,10.40
2019-03-29T10:06:21.696Z,9.80
2019-03-29T10:07:21.659Z,8.80
2019-03-29T10:08:21.688Z,9.10
2019-03-29T10:09:21.656Z,8.70
2019-03-29T10:10:21.643Z,8.80
2019-03-29T10:11:22.229Z,9.50
2019-03-29T10:12:21.626Z,10.90
2019-03-29T10:13:21.634Z,9.20
2019-03-29T10:14:21.591Z,8.60
2019-03-29T10:15:21.591Z,8.80
2019-03-29T10:16:21.572Z,9.30
2019-03-29T10:17:21.567Z,9.70
2019-03-29T10:18:21.578Z,8.50
2019-03-29T10:19:21.537Z,8.90
2019-03-29T10:20:21.532Z,8.20
2019-03-29T10:21:21.519Z,9.40
2019-03-29T10:22:21.516Z,9.60
2019-03-29T10:23:21.529Z,8.80
2019-03-29T10:24:21.503Z,9.50
2019-03-29T10:25:21.765Z,8.80
2019-03-29T10:26:21.473Z,9.50
2019-03-29T10:27:21.458Z,8.60
2019-03-29T10:28:21.480Z,9.50
2019-03-29T10:29:21.457Z,9.80
2019-03-29T10:30:21.440Z,8.20
2019-03-29T10:31:32.124Z,8.30
2019-03-29T10:32:22.411Z,10.00
2019-03-29T10:33:21.416Z,10.50
2019-03-29T10:34:21.388Z,10.40
2019-03-29T10:35:21.388Z,9.90
2019-03-29T10:36:21.374Z,10.80
2019-03-29T10:37:21.361Z,9.60
2019-03-29T10:38:21.389Z,9.20
2019-03-29T10:39:21.336Z,10.00
2019-03-29T10:40:21.912Z,9.70
2019-03-29T10:41:22.677Z,9.10
2019-03-29T10:42:21.320Z,9.10
2019-03-29T10:43:21.418Z,8.90
2019-03-29T10:44:21.283Z,9.20
2019-03-29T10:45:21.272Z,9.10
2019-03-29T10:46:21.272Z,9.90
2019-03-29T10:47:21.264Z,10.20
2019-03-29T10:48:21.281Z,10.90
2019-03-29T10:49:21.248Z,9.60
2019-03-29T10:50:21.219Z,8.80
2019-03-29T10:51:21.215Z,9.70
2019-03-29T10:52:21.208Z,10.00
2019-03-29T10:53:21.235Z,10.20
2019-03-29T10:54:21.191Z,11.90
2019-03-29T10:55:21.170Z,10.00
2019-03-29T10:56:33.409Z,9.80
2019-03-29T10:57:22.157Z,9.30
2019-03-29T10:58:21.177Z,9.50
2019-03-29T10:59:27.174Z,9.60
2019-03-29T11:00:22.129Z,9.90
2019-03-29T11:01:24.480Z,9.50
2019-03-29T11:02:21.102Z,9.60
2019-03-29T11:03:21.172Z,10.40
2019-03-29T11:04:21.087Z,9.50
2019-03-29T11:05:21.082Z,9.40
2019-03-29T11:06:21.067Z,9.20
2019-03-29T11:07:21.061Z,13.70
2019-03-29T11:08:21.088Z,9.60
2019-03-29T11:09:21.039Z,11.80
2019-03-29T11:10:21.026Z,8.80
2019-03-29T11:11:21.022Z,9.80
2019-03-29T11:12:21.011Z,9.30
2019-03-29T11:13:21.042Z,10.10
2019-03-29T11:14:20.983Z,9.90
2019-03-29T11:15:20.977Z,9.90
2019-03-29T11:16:20.972Z,10.00
2019-03-29T11:17:20.962Z,9.60
2019-03-29T11:18:21.002Z,10.10
2019-03-29T11:19:20.937Z,9.90
2019-03-29T11:20:20.938Z,9.80
2019-03-29T11:21:20.935Z,10.00
2019-03-29T11:22:20.907Z,9.70
2019-03-29T11:23:30.009Z,10.00
2019-03-29T11:24:20.877Z,10.30
2019-03-29T11:25:20.872Z,9.60
2019-03-29T11:26:20.867Z,9.80
2019-03-29T11:27:22.454Z,9.70
2019-03-29T11:28:20.842Z,10.00
2019-03-29T11:29:20.848Z,10.30
2019-03-29T11:30:20.815Z,10.20
2019-03-29T11:31:20.818Z,9.80
2019-03-29T11:32:20.809Z,10.00
2019-03-29T11:33:20.788Z,9.50
2019-03-29T11:34:21.155Z,10.10
2019-03-29T11:35:20.779Z,9.50
2019-03-29T11:36:20.759Z,9.70
2019-03-29T11:37:20.749Z,10.10
2019-03-29T11:38:20.746Z,10.00
2019-03-29T11:39:20.759Z,10.70
2019-03-29T11:40:20.717Z,9.80
2019-03-29T11:41:20.707Z,9.60
2019-03-29T11:42:20.695Z,10.40
2019-03-29T11:43:27.017Z,10.40
2019-03-29T11:44:21.712Z,10.30
2019-03-29T11:45:20.664Z,10.10
2019-03-29T11:46:20.661Z,10.70
2019-03-29T11:47:20.670Z,9.80
2019-03-29T11:48:20.635Z,10.20
2019-03-29T11:49:20.649Z,9.70
2019-03-29T11:50:20.620Z,9.90
2019-03-29T11:51:20.599Z,10.10
2019-03-29T11:52:20.586Z,10.00
2019-03-29T11:53:20.592Z,9.60
2019-03-29T11:54:20.612Z,9.70
2019-03-29T11:55:20.566Z,9.40
2019-03-29T11:56:20.569Z,9.60
2019-03-29T11:57:20.544Z,10.40
2019-03-29T11:58:20.538Z,10.50
2019-03-29T11:59:20.552Z,10.80
2019-03-29T12:00:20.512Z,10.30
2019-03-29T12:01:20.508Z,9.50
2019-03-29T12:02:31.059Z,10.70
2019-03-29T12:03:21.488Z,9.60
2019-03-29T12:04:20.521Z,9.40
2019-03-29T12:05:20.493Z,9.40
2019-03-29T12:06:20.453Z,10.30
2019-03-29T12:07:20.457Z,10.90
2019-03-29T12:08:20.450Z,10.50
2019-03-29T12:09:20.475Z,10.00
2019-03-29T12:10:20.414Z,10.70
2019-03-29T12:11:20.412Z,11.60
2019-03-29T12:12:20.389Z,11.10
2019-03-29T12:13:20.386Z,10.30
2019-03-29T12:14:20.401Z,11.90
2019-03-29T12:15:20.360Z,9.80
2019-03-29T12:16:20.353Z,9.90
2019-03-29T12:17:20.348Z,9.30
2019-03-29T12:18:20.330Z,10.60
2019-03-29T12:19:20.353Z,9.20
2019-03-29T12:20:20.314Z,9.70
2019-03-29T12:21:20.323Z,9.70
2019-03-29T12:22:20.295Z,10.00
2019-03-29T12:23:20.285Z,10.00
2019-03-29T12:24:20.311Z,9.70
2019-03-29T12:25:20.272Z,9.60
2019-03-29T12:26:20.254Z,9.60
2019-03-29T12:27:20.241Z,10.10
2019-03-29T12:28:20.229Z,10.20
2019-03-29T12:29:20.221Z,10.40
2019-03-29T12:30:31.155Z,9.90
2019-03-29T12:31:21.236Z,10.00
2019-03-29T12:32:20.196Z,9.70
2019-03-29T12:33:20.177Z,8.70
2019-03-29T12:34:20.168Z,9.50
2019-03-29T12:35:20.186Z,9.40
2019-03-29T12:36:20.154Z,9.40
2019-03-29T12:37:20.137Z,10.30
2019-03-29T12:38:20.134Z,9.90
2019-03-29T12:39:20.116Z,10.20
2019-03-29T12:40:20.132Z,9.80
2019-03-29T12:41:20.097Z,10.10
2019-03-29T12:42:20.090Z,10.90
2019-03-29T12:43:20.080Z,10.00
2019-03-29T12:44:20.079Z,9.10
2019-03-29T12:45:20.092Z,9.40
2019-03-29T12:46:20.049Z,10.50
2019-03-29T12:47:20.044Z,9.60
2019-03-29T12:48:20.028Z,9.60
2019-03-29T12:49:20.028Z,10.30
2019-03-29T12:50:20.039Z,9.60
2019-03-29T12:51:20.003Z,9.30
2019-03-29T12:52:19.991Z,9.30
2019-03-29T12:53:19.979Z,10.60
2019-03-29T12:54:19.970Z,9.60
2019-03-29T12:55:19.986Z,9.80
2019-03-29T12:56:19.952Z,9.60